Time;durP1;ratioP1;P1;durP2;ratioP2;P2;SDS_P1;SDS_P2;PMS_P1;PMS_P2;Temp;Humidity;BMP_temperature;BMP_pressure;BME280_temperature;BME280_humidity;BME280_pressure;Samples;Min_cycle;Max_cycle;Signal;HPM_P1;HPM_P2
2024/02/07 00:00:14;;;;;;;6.07;4.05;;;;;;;-145.63;100.00;61273.97;5031247;28;20029;-67
2024/02/07 00:02:40;;;;;;;7.53;4.15;;;;;;;-145.63;100.00;61273.97;5030804;28;20029;-65
2024/02/07 00:05:06;;;;;;;7.38;4.05;;;;;;;-145.63;100.00;61273.97;5031244;28;20155;-65
2024/02/07 00:07:32;;;;;;;6.63;4.28;;;;;;;-145.63;100.00;61273.97;5020135;28;20447;-64
2024/02/07 00:09:57;;;;;;;6.03;4.28;;;;;;;-145.63;100.00;61273.97;5017704;28;20040;-66
2024/02/07 00:12:23;;;;;;;8.82;5.00;;;;;;;-145.63;100.00;61273.97;5024625;28;20042;-66
2024/02/07 00:14:49;;;;;;;6.85;4.50;;;;;;;-145.63;100.00;61273.97;5012143;28;20105;-65
2024/02/07 00:17:14;;;;;;;7.70;4.82;;;;;;;-145.63;100.00;61273.97;5026130;28;20383;-64
2024/02/07 00:19:40;;;;;;;7.80;4.60;;;;;;;-145.63;100.00;61273.97;5024053;28;20459;-65
2024/02/07 00:22:06;;;;;;;10.20;4.82;;;;;;;-145.63;100.00;61273.97;5033294;28;20034;-64
2024/02/07 00:24:31;;;;;;;5.95;4.65;;;;;;;-145.63;100.00;61273.97;5035711;28;20108;-66
2024/02/07 00:26:57;;;;;;;10.63;5.47;;;;;;;-145.63;100.00;61273.97;5035752;28;20029;-64
2024/02/07 00:29:22;;;;;;;6.70;4.55;;;;;;;-145.63;100.00;61273.97;5035665;28;20030;-66
2024/02/07 00:31:48;;;;;;;6.97;5.30;;;;;;;-145.63;100.00;61273.97;5035763;28;20446;-66
2024/02/07 00:34:14;;;;;;;7.00;4.57;;;;;;;-145.63;100.00;61273.97;5026353;28;20113;-65
2024/02/07 00:36:39;;;;;;;8.50;4.85;;;;;;;-145.63;100.00;61273.97;5019275;28;20103;-66
2024/02/07 00:39:05;;;;;;;8.63;4.70;;;;;;;-145.63;100.00;61273.97;5035687;28;20029;-65
2024/02/07 00:41:31;;;;;;;10.63;5.10;;;;;;;-145.63;100.00;61273.97;5015951;28;20068;-63
2024/02/07 00:43:56;;;;;;;6.47;4.60;;;;;;;-145.63;100.00;61273.97;5028524;28;20033;-65
2024/02/07 00:46:22;;;;;;;8.60;4.65;;;;;;;-145.63;100.00;61273.97;5035120;28;20030;-66
2024/02/07 00:48:48;;;;;;;6.63;4.88;;;;;;;-145.63;100.00;61273.97;5035734;28;20037;-66
2024/02/07 00:51:14;;;;;;;7.93;5.10;;;;;;;-145.63;100.00;61273.97;5028471;28;20379;-67
2024/02/07 00:53:40;;;;;;;8.10;5.50;;;;;;;-145.63;100.00;61273.97;5034710;28;20028;-66
2024/02/07 00:56:06;;;;;;;9.02;5.03;;;;;;;-145.63;100.00;61273.97;5035234;28;20025;-64
2024/02/07 00:58:31;;;;;;;9.85;5.97;;;;;;;-145.63;100.00;61273.97;5035111;28;20037;-64
2024/02/07 01:00:57;;;;;;;8.00;4.80;;;;;;;-145.63;100.00;61273.97;5035362;28;20087;-66
2024/02/07 01:03:24;;;;;;;10.25;5.22;;;;;;;-145.63;100.00;61273.97;5035037;28;20029;-67
2024/02/07 01:05:49;;;;;;;9.57;5.60;;;;;;;-145.63;100.00;61273.97;5035030;28;20043;-64
2024/02/07 01:08:15;;;;;;;8.88;5.10;;;;;;;-145.63;100.00;61273.97;5017726;28;20029;-65
2024/02/07 01:10:42;;;;;;;6.90;4.80;;;;;;;-145.63;100.00;61273.97;5026945;28;20410;-66
2024/02/07 01:13:07;;;;;;;8.20;5.40;;;;;;;-145.63;100.00;61273.97;5052914;28;20025;-65
2024/02/07 01:15:33;;;;;;;9.13;5.28;;;;;;;-145.63;100.00;61273.97;5051260;28;20374;-66
2024/02/07 01:17:59;;;;;;;8.68;5.60;;;;;;;-145.63;100.00;61273.97;5034823;28;20032;-65
2024/02/07 01:20:25;;;;;;;6.80;4.80;;;;;;;-145.63;100.00;61273.97;5034629;28;20067;-65
2024/02/07 01:22:50;;;;;;;8.02;5.32;;;;;;;-145.63;100.00;61273.97;5034833;28;20060;-66
2024/02/07 01:25:17;;;;;;;7.15;4.75;;;;;;;-145.63;100.00;61273.97;5034912;28;20099;-65
2024/02/07 01:27:45;;;;;;;8.70;5.05;;;;;;;-145.63;100.00;61273.97;5034400;28;20038;-66
2024/02/07 01:30:13;;;;;;;8.10;5.25;;;;;;;-145.63;100.00;61273.97;5034602;28;20044;-66
2024/02/07 01:32:41;;;;;;;6.82;4.97;;;;;;;-145.63;100.00;61273.97;5032906;28;20079;-66
2024/02/07 01:35:11;;;;;;;7.95;4.72;;;;;;;-145.63;100.00;61273.97;5033155;28;20080;-65
2024/02/07 01:37:40;;;;;;;9.25;4.82;;;;;;;-145.63;100.00;61273.97;5033080;28;20371;-66
2024/02/07 01:40:11;;;;;;;7.65;5.97;;;;;;;-145.63;100.00;61273.97;5034490;28;20033;-65
2024/02/07 01:42:37;;;;;;;7.07;5.32;;;;;;;-145.63;100.00;61273.97;5034268;28;20040;-65
2024/02/07 01:45:21;;;;;;;8.18;5.68;;;;;;;-145.63;100.00;61273.97;5034596;28;20453;-64
2024/02/07 01:47:48;;;;;;;7.85;5.45;;;;;;;-145.63;100.00;61273.97;5014250;28;20501;-67
2024/02/07 01:50:14;;;;;;;7.53;5.72;;;;;;;-145.63;100.00;61273.97;5030547;28;20083;-65
2024/02/07 01:52:44;;;;;;;8.77;5.45;;;;;;;-145.63;100.00;61273.97;5027458;28;20037;-64
2024/02/07 01:55:12;;;;;;;9.00;5.70;;;;;;;-145.63;100.00;61273.97;5034063;28;20088;-64
2024/02/07 01:57:41;;;;;;;6.57;5.75;;;;;;;-145.63;100.00;61273.97;5033986;28;20037;-64
2024/02/07 02:00:08;;;;;;;7.53;5.45;;;;;;;-145.63;100.00;61273.97;5034526;28;20060;-66
2024/02/07 02:02:34;;;;;;;9.15;5.65;;;;;;;-145.63;100.00;61273.97;5033806;28;20033;-65
2024/02/07 02:05:00;;;;;;;8.55;5.28;;;;;;;-145.63;100.00;61273.97;5034255;28;20039;-64
2024/02/07 02:07:26;;;;;;;6.35;5.68;;;;;;;-145.63;100.00;61273.97;5014235;28;20085;-65
2024/02/07 02:09:52;;;;;;;8.88;6.15;;;;;;;-145.63;100.00;61273.97;5019421;28;20030;-67
2024/02/07 02:12:18;;;;;;;7.90;5.68;;;;;;;-145.63;100.00;61273.97;5044967;28;20029;-65
2024/02/07 02:14:44;;;;;;;7.85;5.85;;;;;;;-145.63;100.00;61273.97;5053395;28;20052;-65
2024/02/07 02:17:10;;;;;;;7.65;6.13;;;;;;;-145.63;100.00;61273.97;5038114;28;20078;-63
2024/02/07 02:19:36;;;;;;;8.07;5.82;;;;;;;-145.63;100.00;61273.97;5033532;28;20052;-65
2024/02/07 02:22:33;;;;;;;10.38;6.93;;;;;;;-145.63;100.00;61273.97;5032224;28;20480;-65
2024/02/07 02:25:13;;;;;;;7.63;5.22;;;;;;;-145.63;100.00;61273.97;5033929;28;20032;-64
2024/02/07 02:28:21;;;;;;;8.25;6.15;;;;;;;-145.63;100.00;61273.97;5033315;28;20030;-65
2024/02/07 02:30:52;;;;;;;7.10;5.93;;;;;;;-145.63;100.00;61273.97;5033711;28;20055;-64
2024/02/07 02:33:24;;;;;;;7.43;5.80;;;;;;;-145.63;100.00;61273.97;5033112;28;20156;-65
2024/02/07 02:35:53;;;;;;;7.93;5.57;;;;;;;-145.63;100.00;61273.97;5013852;28;20040;-64
2024/02/07 02:38:20;;;;;;;8.18;5.57;;;;;;;-145.63;100.00;61273.97;5028456;28;20045;-65
2024/02/07 02:40:48;;;;;;;7.68;6.05;;;;;;;-145.63;100.00;61273.97;5033063;28;20038;-65
2024/02/07 02:43:16;;;;;;;7.53;5.95;;;;;;;-145.63;100.00;61273.97;5032951;28;20144;-65
2024/02/07 02:45:41;;;;;;;6.00;5.38;;;;;;;-145.63;100.00;61273.97;5032024;28;20038;-66
2024/02/07 02:48:07;;;;;;;7.50;5.78;;;;;;;-145.63;100.00;61273.97;5014097;28;20034;-66
2024/02/07 02:50:33;;;;;;;9.35;6.18;;;;;;;-145.63;100.00;61273.97;5031410;28;20037;-65
2024/02/07 02:52:59;;;;;;;9.55;6.35;;;;;;;-145.63;100.00;61273.97;5019485;28;20034;-65
2024/02/07 02:55:25;;;;;;;11.77;7.55;;;;;;;-145.63;100.00;61273.97;5021879;28;20105;-66
2024/02/07 02:57:51;;;;;;;9.63;6.97;;;;;;;-145.63;100.00;61273.97;5032811;28;20461;-66
2024/02/07 03:00:20;;;;;;;8.68;6.55;;;;;;;-145.63;100.00;61273.97;5032717;28;20029;-67
2024/02/07 03:02:46;;;;;;;11.13;6.78;;;;;;;-145.63;100.00;61273.97;5013222;28;20092;-66
2024/02/07 03:08:16;;;;;;;7.72;6.40;;;;;;;-145.63;100.00;61273.97;5019050;28;20025;-65
2024/02/07 03:10:45;;;;;;;8.38;6.38;;;;;;;-145.63;100.00;61273.97;5024000;28;20033;-67
2024/02/07 03:13:12;;;;;;;10.00;6.45;;;;;;;-145.63;100.00;61273.97;5051308;28;20281;-64
2024/02/07 03:15:41;;;;;;;9.27;6.75;;;;;;;-145.63;100.00;61273.97;5032016;28;20033;-66
2024/02/07 03:18:07;;;;;;;9.43;6.35;;;;;;;-145.63;100.00;61273.97;5032046;28;20112;-66
2024/02/07 03:20:33;;;;;;;6.90;6.07;;;;;;;-145.63;100.00;61273.97;5032340;28;20490;-66
2024/02/07 03:22:59;;;;;;;8.68;5.28;;;;;;;-145.63;100.00;61273.97;5032417;28;20116;-65
2024/02/07 03:25:26;;;;;;;7.30;5.47;;;;;;;-145.63;100.00;61273.97;5032511;28;20615;-65
2024/02/07 03:27:51;;;;;;;8.20;5.47;;;;;;;-145.63;100.00;61273.97;5032416;28;20029;-66
2024/02/07 03:30:21;;;;;;;8.65;6.43;;;;;;;-145.63;100.00;61273.97;5032374;28;20033;-66
2024/02/07 03:32:49;;;;;;;9.65;5.95;;;;;;;-145.63;100.00;61273.97;5031781;28;20022;-65
2024/02/07 03:35:15;;;;;;;8.90;5.88;;;;;;;-145.63;100.00;61273.97;5032068;28;20759;-65
2024/02/07 03:37:41;;;;;;;10.25;6.50;;;;;;;-145.63;100.00;61273.97;5031889;28;20056;-66
2024/02/07 03:40:14;;;;;;;9.60;6.47;;;;;;;-145.63;100.00;61273.97;5032442;28;20037;-65
2024/02/07 03:42:44;;;;;;;8.52;6.38;;;;;;;-145.63;100.00;61273.97;5032989;28;20647;-66
2024/02/07 03:45:15;;;;;;;8.70;6.55;;;;;;;-145.63;100.00;61273.97;5035260;28;20025;-67
2024/02/07 03:47:41;;;;;;;8.50;6.35;;;;;;;-145.63;100.00;61273.97;5031172;28;20542;-66
2024/02/07 03:50:10;;;;;;;9.52;6.60;;;;;;;-145.63;100.00;61273.97;5032215;28;20037;-65
2024/02/07 03:52:42;;;;;;;8.27;6.32;;;;;;;-145.63;100.00;61273.97;5030475;28;20357;-65
2024/02/07 03:55:12;;;;;;;;;;;;;;;-145.63;100.00;61273.97;5032643;28;20352;-64
2024/02/07 03:57:42;;;;;;;12.25;7.30;;;;;;;-145.63;100.00;61273.97;5031404;28;19953;-65
2024/02/07 04:00:14;;;;;;;11.88;7.85;;;;;;;-145.63;100.00;61273.97;5028752;28;20552;-67
2024/02/07 04:02:48;;;;;;;13.90;8.35;;;;;;;-145.63;100.00;61273.97;5030729;28;20162;-64
2024/02/07 04:05:16;;;;;;;11.82;7.88;;;;;;;-145.63;100.00;61273.97;5030253;28;20104;-64
2024/02/07 04:07:42;;;;;;;10.57;7.03;;;;;;;-145.63;100.00;61273.97;5022767;28;20095;-64
2024/02/07 04:10:09;;;;;;;11.05;7.13;;;;;;;-145.63;100.00;61273.97;5029407;28;20025;-63
2024/02/07 05:15:36;;;;;;;14.65;10.13;;;;;;;-145.63;100.00;61273.97;5033644;28;20036;-64
2024/02/07 05:18:02;;;;;;;14.15;11.07;;;;;;;-145.63;100.00;61273.97;5031668;28;20037;-66
2024/02/07 05:20:27;;;;;;;17.42;11.05;;;;;;;-145.63;100.00;61273.97;5030273;28;20060;-67
2024/02/07 05:22:53;;;;;;;20.58;12.80;;;;;;;-145.63;100.00;61273.97;5036147;28;20059;-64
2024/02/07 05:25:19;;;;;;;20.55;13.70;;;;;;;-145.63;100.00;61273.97;5034872;28;20044;-64
2024/02/07 05:27:47;;;;;;;23.40;13.93;;;;;;;-145.63;100.00;61273.97;5033881;28;20115;-64
2024/02/07 05:30:14;;;;;;;20.48;13.65;;;;;;;-145.63;100.00;61273.97;5034419;28;20471;-64
2024/02/07 05:32:44;;;;;;;20.33;14.35;;;;;;;-145.63;100.00;61273.97;5016222;28;20560;-63
2024/02/07 05:35:10;;;;;;;27.95;15.60;;;;;;;-145.63;100.00;61273.97;5028057;28;20053;-63
2024/02/07 05:37:37;;;;;;;23.95;15.10;;;;;;;-145.63;100.00;61273.97;5033948;28;20382;-65
2024/02/07 05:40:03;;;;;;;27.25;15.77;;;;;;;-145.63;100.00;61273.97;5001765;28;20490;-64
2024/02/07 05:42:29;;;;;;;31.85;18.65;;;;;;;-145.63;100.00;61273.97;5034202;28;20045;-64
2024/02/07 05:44:54;;;;;;;28.85;17.17;;;;;;;-145.63;100.00;61273.97;5014014;28;20041;-64
2024/02/07 05:47:20;;;;;;;29.65;17.50;;;;;;;-145.63;100.00;61273.97;5029519;28;20028;-64
2024/02/07 05:49:46;;;;;;;32.60;18.17;;;;;;;-145.63;100.00;61273.97;5026949;28;20494;-64
2024/02/07 05:52:14;;;;;;;30.52;16.63;;;;;;;-145.63;100.00;61273.97;5024838;28;20064;-63
2024/02/07 05:54:40;;;;;;;32.88;17.58;;;;;;;-145.63;100.00;61273.97;5032173;28;20030;-64
2024/02/07 05:57:08;;;;;;;36.75;18.60;;;;;;;-145.63;100.00;61273.97;5014263;28;20029;-65
2024/02/07 05:59:34;;;;;;;34.63;19.50;;;;;;;-145.63;100.00;61273.97;5015976;28;20041;-63
2024/02/07 06:02:02;;;;;;;34.08;18.98;;;;;;;-145.63;100.00;61273.97;5026099;28;20030;-65
2024/02/07 06:04:28;;;;;;;36.25;19.63;;;;;;;-145.63;100.00;61273.97;5031750;28;20041;-64
2024/02/07 06:06:53;;;;;;;41.35;20.92;;;;;;;-145.63;100.00;61273.97;5030831;28;20499;-62
2024/02/07 06:09:19;;;;;;;38.90;20.17;;;;;;;-145.63;100.00;61273.97;5013992;28;20153;-64
2024/02/07 06:11:45;;;;;;;39.72;20.65;;;;;;;-145.63;100.00;61273.97;5034268;28;20587;-64
2024/02/07 06:14:12;;;;;;;43.17;20.65;;;;;;;-145.63;100.00;61273.97;5032825;28;20057;-64
2024/02/07 06:16:39;;;;;;;42.60;21.15;;;;;;;-145.63;100.00;61273.97;5022383;28;20051;-64
2024/02/07 06:19:04;;;;;;;42.38;19.80;;;;;;;-145.63;100.00;61273.97;5028617;28;20470;-64
2024/02/07 06:21:30;;;;;;;41.67;20.58;;;;;;;-145.63;100.00;61273.97;5032615;28;20052;-63
2024/02/07 06:23:56;;;;;;;42.50;20.55;;;;;;;-145.63;100.00;61273.97;5033218;28;20037;-65
2024/02/07 06:26:22;;;;;;;44.42;21.08;;;;;;;-145.63;100.00;61273.97;5018299;28;20042;-64
2024/02/07 06:28:50;;;;;;;47.78;21.15;;;;;;;-145.63;100.00;61273.97;5016349;28;20037;-62
2024/02/07 06:31:16;;;;;;;48.90;22.60;;;;;;;-145.63;100.00;61273.97;5016947;28;20131;-64
2024/02/07 06:33:42;;;;;;;49.55;22.50;;;;;;;-145.63;100.00;61273.97;5015207;28;20038;-64
2024/02/07 06:36:08;;;;;;;55.08;24.25;;;;;;;-145.63;100.00;61273.97;5033015;28;20052;-65
2024/02/07 06:38:33;;;;;;;62.22;26.63;;;;;;;-145.63;100.00;61273.97;5028898;28;20104;-63
2024/02/07 06:40:59;;;;;;;63.35;26.05;;;;;;;-145.63;100.00;61273.97;5025065;28;20072;-64
2024/02/07 06:43:25;;;;;;;54.17;22.80;;;;;;;-145.63;100.00;61273.97;5031368;28;20121;-65
2024/02/07 06:45:50;;;;;;;52.33;22.70;;;;;;;-145.63;100.00;61273.97;5030468;28;20083;-63
2024/02/07 06:48:16;;;;;;;49.35;23.15;;;;;;;-145.63;100.00;61273.97;5013118;28;20094;-63
2024/02/07 06:50:42;;;;;;;51.13;25.58;;;;;;;-145.63;100.00;61273.97;5018204;28;20045;-65
2024/02/07 06:53:08;;;;;;;48.53;23.67;;;;;;;-145.63;100.00;61273.97;5032969;28;20029;-63
2024/02/07 06:55:33;;;;;;;48.35;23.70;;;;;;;-145.63;100.00;61273.97;5024033;28;20413;-63
2024/02/07 06:57:59;;;;;;;45.88;22.73;;;;;;;-145.63;100.00;61273.97;5016517;28;20061;-62
2024/02/07 07:00:25;;;;;;;42.63;21.65;;;;;;;-145.63;100.00;61273.97;5014796;28;20088;-63
2024/02/07 07:02:50;;;;;;;44.47;22.50;;;;;;;-145.63;100.00;61273.97;5031347;28;20561;-65
2024/02/07 07:05:16;;;;;;;35.03;18.42;;;;;;;-145.63;100.00;61273.97;5030645;28;20105;-64
2024/02/07 07:07:42;;;;;;;36.35;18.38;;;;;;;-145.63;100.00;61273.97;5021783;28;20168;-63
2024/02/07 07:10:08;;;;;;;33.47;18.90;;;;;;;-145.63;100.00;61273.97;5032652;28;20030;-64
2024/02/07 07:12:33;;;;;;;30.77;16.35;;;;;;;-145.63;100.00;61273.97;5038172;28;20040;-65
2024/02/07 07:14:59;;;;;;;29.40;15.10;;;;;;;-145.63;100.00;61273.97;5032486;28;20075;-64
2024/02/07 07:17:25;;;;;;;27.48;15.82;;;;;;;-145.63;100.00;61273.97;5031832;28;20083;-64
2024/02/07 07:19:50;;;;;;;26.42;14.88;;;;;;;-145.63;100.00;61273.97;5032552;28;20152;-65
2024/02/07 07:22:16;;;;;;;30.27;15.35;;;;;;;-145.63;100.00;61273.97;5032454;28;20037;-65
2024/02/07 07:24:42;;;;;;;27.30;13.85;;;;;;;-145.63;100.00;61273.97;5031396;28;20116;-64
2024/02/07 07:27:08;;;;;;;23.98;14.25;;;;;;;-145.63;100.00;61273.97;5012478;28;20458;-64
2024/02/07 07:29:33;;;;;;;22.73;13.35;;;;;;;-145.63;100.00;61273.97;5028028;28;20044;-65
2024/02/07 07:32:00;;;;;;;21.73;11.57;;;;;;;-145.63;100.00;61273.97;5020908;28;20410;-66
2024/02/07 07:34:26;;;;;;;20.58;11.63;;;;;;;-145.63;100.00;61273.97;5032374;28;20064;-66
2024/02/07 07:36:52;;;;;;;21.27;12.95;;;;;;;-145.63;100.00;61273.97;5032067;28;20072;-64
2024/02/07 07:39:19;;;;;;;21.02;12.55;;;;;;;-145.63;100.00;61273.97;5032089;28;20037;-64
2024/02/07 07:41:44;;;;;;;27.35;15.52;;;;;;;-145.63;100.00;61273.97;5032078;28;20033;-65
2024/02/07 07:44:10;;;;;;;45.05;17.67;;;;;;;-145.63;100.00;61273.97;5030861;28;20041;-66
2024/02/07 07:46:36;;;;;;;32.92;18.75;;;;;;;-145.63;100.00;61273.97;5032444;28;20035;-64
2024/02/07 07:49:02;;;;;;;30.63;18.02;;;;;;;-145.63;100.00;61273.97;5032334;28;20033;-65
2024/02/07 07:51:27;;;;;;;24.90;14.95;;;;;;;-145.63;100.00;61273.97;5021900;28;20025;-66
2024/02/07 07:53:54;;;;;;;27.88;16.58;;;;;;;-145.63;100.00;61273.97;5032453;28;20041;-63
2024/02/07 07:56:20;;;;;;;32.13;17.88;;;;;;;-145.63;100.00;61273.97;5032307;28;20037;-63
2024/02/07 07:58:49;;;;;;;31.65;18.23;;;;;;;-145.63;100.00;61273.97;5031712;28;20036;-64
2024/02/07 08:01:24;;;;;;;27.27;17.02;;;;;;;-145.63;100.00;61273.97;5031889;28;20036;-64
2024/02/07 08:03:53;;;;;;;33.28;19.58;;;;;;;-145.63;100.00;61273.97;5031273;28;20116;-64
2024/02/07 08:06:21;;;;;;;25.65;16.33;;;;;;;-145.63;100.00;61273.97;5020819;28;20054;-64
2024/02/07 08:08:47;;;;;;;25.45;17.25;;;;;;;-145.63;100.00;61273.97;5012223;28;20101;-63
2024/02/07 08:11:13;;;;;;;29.52;17.75;;;;;;;-145.63;100.00;61273.97;5026592;28;20226;-64
2024/02/07 08:13:38;;;;;;;29.27;17.50;;;;;;;-145.63;100.00;61273.97;5049775;28;20033;-64
2024/02/07 08:16:05;;;;;;;24.95;16.13;;;;;;;-145.63;100.00;61273.97;5048231;28;20029;-63
2024/02/07 08:18:31;;;;;;;28.55;16.88;;;;;;;-145.63;100.00;61273.97;5031593;28;20367;-65
2024/02/07 08:20:57;;;;;;;26.52;15.85;;;;;;;-145.63;100.00;61273.97;5031428;28;20033;-65
2024/02/07 08:23:24;;;;;;;32.20;16.80;;;;;;;-145.63;100.00;61273.97;5031400;28;20674;-66
2024/02/07 08:25:50;;;;;;;29.73;16.33;;;;;;;-145.63;100.00;61273.97;5031220;28;20060;-64
2024/02/07 08:28:16;;;;;;;28.17;15.07;;;;;;;-145.63;100.00;61273.97;5031477;28;20127;-65
2024/02/07 08:30:42;;;;;;;25.42;13.82;;;;;;;-145.63;100.00;61273.97;5030601;28;20040;-65
2024/02/07 08:33:08;;;;;;;32.67;15.98;;;;;;;-145.63;100.00;61273.97;5029963;28;20025;-64
2024/02/07 08:35:33;;;;;;;27.95;15.57;;;;;;;-145.63;100.00;61273.97;5027217;28;20159;-66
2024/02/07 08:37:59;;;;;;;21.88;12.20;;;;;;;-145.63;100.00;61273.97;5027413;28;20057;-65
2024/02/07 08:40:28;;;;;;;21.35;13.57;;;;;;;-145.63;100.00;61273.97;5030589;28;20124;-66
2024/02/07 08:42:54;;;;;;;25.48;13.43;;;;;;;-145.63;100.00;61273.97;5014288;28;20068;-64
2024/02/07 08:45:20;;;;;;;22.80;13.38;;;;;;;-145.63;100.00;61273.97;5033751;28;20033;-64
2024/02/07 08:47:47;;;;;;;21.52;11.93;;;;;;;-145.63;100.00;61273.97;5032984;28;20037;-64
2024/02/07 08:50:13;;;;;;;20.63;12.00;;;;;;;-145.63;100.00;61273.97;5029223;28;20044;-66
2024/02/07 08:52:40;;;;;;;20.85;11.52;;;;;;;-145.63;100.00;61273.97;5032398;28;20029;-65
2024/02/07 08:55:08;;;;;;;16.85;10.55;;;;;;;-145.63;100.00;61273.97;5026937;28;20030;-65
2024/02/07 08:57:38;;;;;;;16.88;10.18;;;;;;;-145.63;100.00;61273.97;5026175;28;20105;-65
2024/02/07 09:00:05;;;;;;;18.98;10.70;;;;;;;-145.63;100.00;61273.97;5029062;28;20049;-64
2024/02/07 09:02:33;;;;;;;17.55;10.82;;;;;;;-145.63;100.00;61273.97;5029239;28;20030;-65
2024/02/07 09:05:04;;;;;;;15.63;9.60;;;;;;;-145.63;100.00;61273.97;5032328;28;20065;-66
2024/02/07 09:07:32;;;;;;;16.13;9.93;;;;;;;-145.63;100.00;61273.97;5030504;28;20108;-65
2024/02/07 09:10:01;;;;;;;15.00;9.32;;;;;;;-145.63;100.00;61273.97;5030827;28;20125;-65
2024/02/07 09:12:29;;;;;;;15.73;10.15;;;;;;;-145.63;100.00;61273.97;5034521;28;20057;-64
2024/02/07 09:14:59;;;;;;;16.38;10.85;;;;;;;-145.63;100.00;61273.97;5031663;28;20057;-64
2024/02/07 09:17:25;;;;;;;15.85;9.73;;;;;;;-145.63;100.00;61273.97;5026188;28;20065;-66
2024/02/07 09:19:51;;;;;;;16.85;10.23;;;;;;;-145.63;100.00;61273.97;5023725;28;20060;-65
2024/02/07 09:22:16;;;;;;;16.00;9.88;;;;;;;-145.63;100.00;61273.97;5019447;28;20041;-65
2024/02/07 09:24:42;;;;;;;15.98;8.98;;;;;;;-145.63;100.00;61273.97;5025416;28;20034;-66
2024/02/07 09:27:08;;;;;;;14.80;9.85;;;;;;;-145.63;100.00;61273.97;5032076;28;20414;-63
2024/02/07 09:29:35;;;;;;;14.32;9.40;;;;;;;-145.63;100.00;61273.97;5024861;28;20053;-65
2024/02/07 09:32:02;;;;;;;17.23;10.82;;;;;;;-145.63;100.00;61273.97;5024769;28;20040;-65
2024/02/07 09:34:28;;;;;;;14.45;9.10;;;;;;;-145.63;100.00;61273.97;5023092;28;20112;-64
2024/02/07 09:36:53;;;;;;;15.95;10.45;;;;;;;-145.63;100.00;61273.97;5025776;28;20048;-65
2024/02/07 09:39:20;;;;;;;16.88;10.75;;;;;;;-145.63;100.00;61273.97;5030987;28;20160;-65
2024/02/07 09:41:48;;;;;;;21.73;11.43;;;;;;;-145.63;100.00;61273.97;5027675;28;20469;-64
2024/02/07 09:44:16;;;;;;;17.65;11.30;;;;;;;-145.63;100.00;61273.97;5027899;28;20113;-66
2024/02/07 09:46:44;;;;;;;18.77;11.20;;;;;;;-145.63;100.00;61273.97;5023791;28;20060;-65
2024/02/07 09:49:13;;;;;;;20.45;12.10;;;;;;;-145.63;100.00;61273.97;5020229;28;20034;-66
2024/02/07 09:51:42;;;;;;;21.15;13.00;;;;;;;-145.63;100.00;61273.97;5019733;28;20034;-64
2024/02/07 09:54:17;;;;;;;18.80;12.52;;;;;;;-145.63;100.00;61273.97;5026926;28;20033;-65
2024/02/07 09:56:45;;;;;;;19.48;12.95;;;;;;;-145.63;100.00;61273.97;5021530;28;20026;-66
2024/02/07 09:59:11;;;;;;;17.85;12.13;;;;;;;-145.63;100.00;61273.97;5021413;28;20489;-64
2024/02/07 10:01:37;;;;;;;21.15;12.43;;;;;;;-145.63;100.00;61273.97;5028428;28;20120;-64
2024/02/07 10:04:07;;;;;;;21.08;13.32;;;;;;;-145.63;100.00;61273.97;5033996;28;20032;-65
2024/02/07 10:06:33;;;;;;;20.60;12.00;;;;;;;-145.63;100.00;61273.97;5021375;28;20555;-65
2024/02/07 10:08:59;;;;;;;22.15;14.23;;;;;;;-145.63;100.00;61273.97;5031714;28;20030;-65
2024/02/07 10:11:25;;;;;;;24.40;13.55;;;;;;;-145.63;100.00;61273.97;5032361;28;20029;-65
2024/02/07 10:13:51;;;;;;;19.80;13.13;;;;;;;-145.63;100.00;61273.97;5053357;28;20037;-66
2024/02/07 10:16:17;;;;;;;19.75;12.77;;;;;;;-145.63;100.00;61273.97;5049551;28;20080;-64
2024/02/07 10:18:44;;;;;;;21.95;12.95;;;;;;;-145.63;100.00;61273.97;5033351;28;20022;-64
2024/02/07 10:21:11;;;;;;;24.40;14.65;;;;;;;-145.63;100.00;61273.97;5033716;28;20036;-66
2024/02/07 10:23:37;;;;;;;20.67;12.45;;;;;;;-145.63;100.00;61273.97;5032923;28;20026;-66
2024/02/07 10:26:03;;;;;;;22.02;13.55;;;;;;;-145.63;100.00;61273.97;5033458;28;20386;-67
2024/02/07 10:28:30;;;;;;;24.30;14.18;;;;;;;-145.63;100.00;61273.97;5033204;28;20538;-65
2024/02/07 10:30:56;;;;;;;22.88;14.43;;;;;;;-145.63;100.00;61273.97;5030189;28;20111;-67
2024/02/07 10:33:21;;;;;;;24.42;12.82;;;;;;;-145.63;100.00;61273.97;5033267;28;20126;-66
2024/02/07 10:35:56;;;;;;;30.80;16.15;;;;;;;-145.63;100.00;61273.97;5032508;28;20060;-67
2024/02/07 10:38:26;;;;;;;29.23;16.52;;;;;;;-145.63;100.00;61273.97;5029084;28;20045;-66
2024/02/07 10:40:52;;;;;;;27.85;16.38;;;;;;;-145.63;100.00;61273.97;5033167;28;20045;-65
2024/02/07 10:43:24;;;;;;;30.35;17.40;;;;;;;-145.63;100.00;61273.97;5033203;28;20044;-65
2024/02/07 10:46:12;;;;;;;25.95;14.98;;;;;;;-145.63;100.00;61273.97;5032615;28;20486;-65
2024/02/07 10:48:39;;;;;;;40.10;19.05;;;;;;;-145.63;100.00;61273.97;5033237;28;20033;-65
2024/02/07 10:51:05;;;;;;;36.47;18.17;;;;;;;-145.63;100.00;61273.97;5033195;28;20031;-65
2024/02/07 10:53:32;;;;;;;31.75;17.58;;;;;;;-145.63;100.00;61273.97;5032723;28;20109;-65
2024/02/07 10:55:59;;;;;;;36.63;18.88;;;;;;;-145.63;100.00;61273.97;5025871;28;20518;-65
2024/02/07 10:58:27;;;;;;;31.40;17.63;;;;;;;-145.63;100.00;61273.97;5017638;28;20105;-65
2024/02/07 11:00:55;;;;;;;32.67;19.40;;;;;;;-145.63;100.00;61273.97;5029628;28;20029;-63
2024/02/07 11:03:23;;;;;;;28.85;17.35;;;;;;;-145.63;100.00;61273.97;5033238;28;20427;-67
2024/02/07 11:05:49;;;;;;;28.15;17.63;;;;;;;-145.63;100.00;61273.97;5022346;28;20030;-64
2024/02/07 11:08:16;;;;;;;32.83;20.40;;;;;;;-145.63;100.00;61273.97;5030220;28;20068;-65
2024/02/07 11:10:42;;;;;;;35.92;18.70;;;;;;;-145.63;100.00;61273.97;5027112;28;20121;-64
2024/02/07 11:13:12;;;;;;;28.42;16.02;;;;;;;-145.63;100.00;61273.97;5032512;28;20053;-65
2024/02/07 11:15:39;;;;;;;25.77;15.73;;;;;;;-145.63;100.00;61273.97;5032133;28;20021;-65
2024/02/07 11:18:06;;;;;;;24.65;13.88;;;;;;;-145.63;100.00;61273.97;5032072;28;20087;-64
2024/02/07 11:20:33;;;;;;;29.98;17.65;;;;;;;-145.63;100.00;61273.97;5031350;28;20033;-65
2024/02/07 11:23:03;;;;;;;26.75;16.77;;;;;;;-145.63;100.00;61273.97;5030379;28;20038;-65
2024/02/07 11:25:31;;;;;;;26.97;16.23;;;;;;;-145.63;100.00;61273.97;5031327;28;20882;-65
2024/02/07 11:27:57;;;;;;;28.60;16.92;;;;;;;-145.63;100.00;61273.97;5020882;28;20022;-66
2024/02/07 11:30:25;;;;;;;29.05;17.63;;;;;;;-145.63;100.00;61273.97;5032688;28;20029;-64
2024/02/07 11:32:51;;;;;;;22.05;14.77;;;;;;;-145.63;100.00;61273.97;5021688;28;20583;-64
2024/02/07 11:35:21;;;;;;;23.17;15.43;;;;;;;-145.63;100.00;61273.97;5027077;28;20125;-66
2024/02/07 11:37:51;;;;;;;22.05;14.30;;;;;;;-145.63;100.00;61273.97;5032146;28;20557;-64
2024/02/07 11:40:18;;;;;;;22.88;15.93;;;;;;;-145.63;100.00;61273.97;5022750;28;20044;-65
2024/02/07 11:42:44;;;;;;;25.27;15.52;;;;;;;-145.63;100.00;61273.97;5015595;28;20069;-65
2024/02/07 11:45:14;;;;;;;22.00;15.40;;;;;;;-145.63;100.00;61273.97;5013329;28;20155;-64
2024/02/07 11:47:42;;;;;;;23.00;14.98;;;;;;;-145.63;100.00;61273.97;5027479;28;20068;-65
2024/02/07 11:50:14;;;;;;;21.10;13.15;;;;;;;-145.63;100.00;61273.97;5030811;28;20033;-64
2024/02/07 11:52:41;;;;;;;19.30;14.15;;;;;;;-145.63;100.00;61273.97;5032297;28;20121;-64
2024/02/07 11:55:17;;;;;;;22.52;14.55;;;;;;;-145.63;100.00;61273.97;5030568;28;20087;-66
2024/02/07 11:57:54;;;;;;;21.45;14.10;;;;;;;-145.63;100.00;61273.97;5023318;28;20033;-66
2024/02/07 12:00:22;;;;;;;22.48;14.15;;;;;;;-145.63;100.00;61273.97;5014738;28;20092;-65
2024/02/07 12:02:50;;;;;;;20.52;13.75;;;;;;;-145.63;100.00;61273.97;5032671;28;20099;-66
2024/02/07 12:05:17;;;;;;;20.33;12.70;;;;;;;-145.63;100.00;61273.97;5020831;28;20025;-67